createdAt,value
2017-08-26T00:01:37.210Z,18.77
2017-08-26T00:04:04.802Z,21.27
2017-08-26T00:06:32.293Z,22.98
2017-08-26T00:08:59.803Z,20.92
2017-08-26T00:11:27.308Z,22.08
2017-08-26T00:13:54.810Z,20.83
2017-08-26T00:16:22.553Z,25.33
2017-08-26T00:18:50.098Z,18.80
2017-08-26T00:21:17.691Z,19.95
2017-08-26T00:23:45.215Z,18.02
2017-08-26T00:26:12.742Z,18.67
2017-08-26T00:28:40.250Z,20.08
2017-08-26T00:31:07.814Z,19.35
2017-08-26T00:33:35.398Z,31.65
2017-08-26T00:36:03.029Z,20.70
2017-08-26T00:38:31.511Z,18.62
2017-08-26T00:40:59.079Z,18.52
2017-08-26T00:43:26.740Z,16.80
2017-08-26T00:45:54.240Z,17.33
2017-08-26T00:48:21.846Z,17.58
2017-08-26T00:50:49.431Z,23.17
2017-08-26T00:53:16.941Z,18.30
2017-08-26T00:55:44.535Z,18.37
2017-08-26T00:58:12.043Z,19.27
2017-08-26T01:00:39.665Z,15.38
2017-08-26T01:03:07.327Z,18.52
2017-08-26T01:05:35.019Z,15.45
2017-08-26T01:08:02.530Z,16.67
2017-08-26T01:10:30.032Z,17.15
2017-08-26T01:12:57.529Z,16.70
2017-08-26T01:15:25.048Z,16.90
2017-08-26T01:17:52.683Z,21.10
2017-08-26T01:20:20.208Z,15.68
2017-08-26T01:22:47.810Z,15.38
2017-08-26T01:25:15.307Z,16.17
2017-08-26T01:27:42.825Z,14.20
2017-08-26T01:30:10.471Z,15.60
2017-08-26T01:32:37.977Z,17.02
2017-08-26T01:35:05.502Z,18.02
2017-08-26T01:37:33.160Z,16.20
2017-08-26T01:40:00.816Z,15.60
2017-08-26T01:42:28.487Z,14.68
2017-08-26T01:44:56.163Z,14.32
2017-08-26T01:47:23.705Z,18.15
2017-08-26T01:49:51.303Z,14.90
2017-08-26T01:52:18.841Z,14.90
2017-08-26T01:54:46.364Z,15.43
2017-08-26T01:57:13.890Z,15.32
2017-08-26T01:59:41.395Z,16.25
2017-08-26T02:02:09.182Z,14.18
2017-08-26T02:04:36.831Z,14.90
2017-08-26T02:07:04.326Z,14.27
2017-08-26T02:09:31.958Z,13.75
2017-08-26T02:11:59.625Z,15.18
2017-08-26T02:14:27.295Z,15.77
2017-08-26T02:16:54.834Z,18.58
2017-08-26T02:19:22.611Z,18.80
2017-08-26T02:21:50.267Z,19.58
2017-08-26T02:24:17.818Z,17.17
2017-08-26T02:26:45.318Z,22.15
2017-08-26T02:29:12.856Z,17.73
2017-08-26T02:31:40.406Z,21.55
2017-08-26T02:34:07.998Z,20.90
2017-08-26T02:36:35.535Z,18.67
2017-08-26T02:39:03.057Z,19.08
2017-08-26T02:41:31.466Z,19.10
2017-08-26T02:43:59.239Z,18.20
2017-08-26T02:46:26.906Z,15.18
2017-08-26T02:48:54.461Z,15.73
2017-08-26T02:51:21.958Z,17.33
2017-08-26T02:53:49.529Z,15.48
2017-08-26T02:56:17.138Z,14.90
2017-08-26T02:58:44.648Z,14.15
2017-08-26T03:01:12.153Z,15.77
2017-08-26T03:03:39.681Z,15.45
2017-08-26T03:06:07.173Z,14.55
2017-08-26T03:08:34.827Z,16.20
2017-08-26T03:11:02.371Z,14.75
2017-08-26T03:13:29.864Z,13.38
2017-08-26T03:15:57.386Z,13.80
2017-08-26T03:18:25.068Z,13.32
2017-08-26T03:20:52.722Z,13.77
2017-08-26T03:23:20.412Z,15.52
2017-08-26T03:25:47.930Z,13.48
2017-08-26T03:28:15.431Z,14.27
2017-08-26T03:30:42.952Z,13.32
2017-08-26T03:33:10.468Z,14.13
2017-08-26T03:35:37.985Z,13.95
2017-08-26T03:38:05.485Z,12.32
2017-08-26T03:40:33.002Z,14.00
2017-08-26T03:43:00.720Z,14.40
2017-08-26T03:45:28.360Z,12.68
2017-08-26T03:47:56.015Z,15.18
2017-08-26T03:50:23.530Z,14.52
2017-08-26T03:52:51.050Z,13.23
2017-08-26T03:55:18.581Z,14.80
2017-08-26T03:57:46.092Z,11.98
2017-08-26T04:00:13.735Z,15.20
2017-08-26T04:02:41.245Z,12.48
2017-08-26T04:05:09.716Z,11.93
2017-08-26T04:07:38.457Z,13.52
2017-08-26T04:10:06.005Z,13.68
2017-08-26T04:12:33.570Z,15.55
2017-08-26T04:15:01.066Z,14.30
2017-08-26T04:17:28.560Z,14.23
2017-08-26T04:19:56.262Z,13.15
2017-08-26T04:22:23.772Z,12.05
2017-08-26T04:24:51.361Z,10.88
2017-08-26T04:27:19.019Z,12.57
2017-08-26T04:29:46.660Z,12.20
2017-08-26T04:32:14.240Z,12.55
2017-08-26T04:34:41.926Z,10.40
2017-08-26T04:37:09.573Z,9.25
2017-08-26T04:39:37.342Z,10.77
2017-08-26T04:42:04.996Z,11.60
2017-08-26T04:44:32.584Z,10.88
2017-08-26T04:47:00.318Z,9.60
2017-08-26T04:49:27.810Z,11.50
2017-08-26T04:51:55.295Z,10.07
2017-08-26T04:54:22.846Z,10.18
2017-08-26T04:56:50.446Z,15.75
2017-08-26T04:59:18.027Z,8.82
2017-08-26T05:01:45.504Z,10.07
2017-08-26T05:04:13.150Z,10.65
2017-08-26T05:06:40.703Z,10.52
2017-08-26T05:09:08.258Z,7.70
2017-08-26T05:11:35.790Z,8.70
2017-08-26T05:14:03.383Z,8.70
2017-08-26T05:16:30.950Z,9.35
2017-08-26T05:18:58.455Z,10.00
2017-08-26T05:21:26.173Z,7.78
2017-08-26T05:23:53.681Z,7.87
2017-08-26T05:26:21.197Z,15.27
2017-08-26T05:28:48.942Z,8.75
2017-08-26T05:31:16.474Z,8.20
2017-08-26T05:33:44.311Z,15.32
2017-08-26T05:36:12.177Z,7.82
2017-08-26T05:38:39.831Z,9.00
2017-08-26T05:41:08.308Z,9.65
2017-08-26T05:43:35.845Z,9.60
2017-08-26T05:46:03.357Z,8.68
2017-08-26T05:48:30.878Z,9.00
2017-08-26T05:50:58.381Z,13.05
2017-08-26T05:53:25.889Z,8.10
2017-08-26T05:55:53.379Z,8.05
2017-08-26T05:58:20.888Z,8.25
2017-08-26T06:00:48.417Z,8.40
2017-08-26T06:03:16.048Z,8.07
2017-08-26T06:05:43.544Z,18.70
2017-08-26T06:08:11.055Z,8.68
2017-08-26T06:10:38.621Z,8.00
2017-08-26T06:13:06.136Z,9.65
2017-08-26T06:15:33.664Z,9.70
2017-08-26T06:18:01.162Z,8.07
2017-08-26T06:20:28.711Z,8.38
2017-08-26T06:22:56.276Z,7.97
2017-08-26T06:25:23.895Z,9.05
2017-08-26T06:27:51.498Z,7.57
2017-08-26T06:30:19.296Z,9.77
2017-08-26T06:32:46.968Z,7.12
2017-08-26T06:35:14.490Z,5.78
2017-08-26T06:37:41.988Z,6.95
2017-08-26T06:40:09.519Z,9.77
2017-08-26T06:42:37.021Z,6.28
2017-08-26T06:45:04.542Z,5.80
2017-08-26T06:47:32.036Z,5.93
2017-08-26T06:49:59.648Z,6.87
2017-08-26T06:52:27.143Z,7.87
2017-08-26T06:54:54.686Z,5.37
2017-08-26T06:57:22.370Z,6.53
2017-08-26T06:59:49.992Z,5.75
2017-08-26T07:02:17.502Z,8.02
2017-08-26T07:04:45.055Z,11.52
2017-08-26T07:07:12.669Z,5.40
2017-08-26T07:09:40.241Z,6.72
2017-08-26T07:12:07.808Z,6.25
2017-08-26T07:14:35.290Z,5.47
2017-08-26T07:17:02.913Z,5.72
2017-08-26T07:19:30.432Z,9.02
2017-08-26T07:21:57.970Z,7.30
2017-08-26T07:24:25.464Z,7.18
2017-08-26T07:26:52.981Z,6.30
2017-08-26T07:29:20.480Z,6.95
2017-08-26T07:31:48.173Z,6.60
2017-08-26T07:34:15.866Z,5.10
2017-08-26T07:36:43.496Z,5.53
2017-08-26T07:39:11.010Z,6.75
2017-08-26T07:41:38.516Z,4.90
2017-08-26T07:44:06.124Z,5.25
2017-08-26T07:46:33.782Z,5.12
2017-08-26T07:49:01.294Z,6.90
2017-08-26T07:51:28.825Z,9.43
2017-08-26T07:53:56.356Z,16.45
2017-08-26T07:56:23.861Z,11.07
2017-08-26T07:58:51.337Z,5.37
2017-08-26T08:01:18.858Z,4.57
2017-08-26T08:03:46.366Z,6.55
2017-08-26T08:06:13.877Z,4.30
2017-08-26T08:08:41.489Z,4.80
2017-08-26T08:11:09.047Z,4.97
2017-08-26T08:13:36.816Z,4.30
2017-08-26T08:16:04.338Z,6.57
2017-08-26T08:18:32.040Z,4.90
2017-08-26T08:20:59.556Z,4.45
2017-08-26T08:23:27.275Z,5.70
2017-08-26T08:25:54.924Z,4.57
2017-08-26T08:28:22.485Z,4.62
2017-08-26T08:30:49.998Z,6.65
2017-08-26T08:33:17.589Z,5.07
2017-08-26T08:35:45.122Z,7.20
2017-08-26T08:38:12.809Z,5.78
2017-08-26T08:40:40.486Z,4.75
2017-08-26T08:43:08.154Z,4.87
2017-08-26T08:45:35.660Z,5.78
2017-08-26T08:48:03.161Z,4.70
2017-08-26T08:50:30.678Z,6.30
2017-08-26T08:52:58.200Z,4.80
2017-08-26T08:55:25.697Z,8.90
2017-08-26T08:57:53.186Z,6.70
2017-08-26T09:00:20.713Z,7.50
2017-08-26T09:02:48.229Z,5.93
2017-08-26T09:05:15.756Z,4.80
2017-08-26T09:07:43.378Z,5.43
2017-08-26T09:10:10.880Z,10.40
2017-08-26T09:12:38.368Z,7.15
2017-08-26T09:15:05.862Z,5.15
2017-08-26T09:17:33.358Z,4.50
2017-08-26T09:20:00.895Z,4.90
2017-08-26T09:22:28.405Z,4.18
2017-08-26T09:24:55.912Z,4.45
2017-08-26T09:27:23.422Z,6.57
2017-08-26T09:29:50.912Z,4.70
2017-08-26T09:32:18.445Z,5.00
2017-08-26T09:34:46.028Z,5.28
2017-08-26T09:37:13.651Z,5.55
2017-08-26T09:39:41.165Z,4.97
2017-08-26T09:42:08.786Z,6.10
2017-08-26T09:44:36.324Z,3.55
2017-08-26T09:47:03.816Z,4.57
2017-08-26T09:49:31.303Z,4.00
2017-08-26T09:51:59.013Z,4.18
2017-08-26T09:54:26.494Z,5.82
2017-08-26T09:56:53.990Z,3.62
2017-08-26T09:59:21.509Z,4.80
2017-08-26T10:01:49.271Z,4.97
2017-08-26T10:04:16.817Z,4.00
2017-08-26T10:06:44.565Z,4.70
2017-08-26T10:09:12.257Z,5.03
2017-08-26T10:11:39.920Z,3.80
2017-08-26T10:14:07.454Z,6.90
2017-08-26T10:16:35.248Z,4.87
2017-08-26T10:19:02.778Z,5.50
2017-08-26T10:21:30.413Z,9.10
2017-08-26T10:23:58.025Z,8.38
2017-08-26T10:26:25.731Z,7.95
2017-08-26T10:28:53.375Z,6.57
2017-08-26T10:31:20.905Z,9.43
2017-08-26T10:33:48.475Z,6.53
2017-08-26T10:36:15.977Z,5.20
2017-08-26T10:38:43.485Z,6.35
2017-08-26T10:41:11.001Z,10.48
2017-08-26T10:43:38.516Z,4.45
2017-08-26T10:46:06.057Z,6.90
2017-08-26T10:48:33.642Z,5.40
2017-08-26T10:51:01.142Z,7.15
2017-08-26T10:53:28.689Z,5.82
2017-08-26T10:55:56.206Z,5.32
2017-08-26T10:58:23.702Z,5.53
2017-08-26T11:00:51.218Z,6.05
2017-08-26T11:03:18.767Z,4.25
2017-08-26T11:05:46.381Z,6.43
2017-08-26T11:08:13.862Z,6.20
2017-08-26T11:10:41.404Z,9.65
2017-08-26T11:13:08.950Z,8.65
2017-08-26T11:15:36.485Z,7.07
2017-08-26T11:18:04.144Z,4.87
2017-08-26T11:20:31.856Z,5.70
2017-08-26T11:22:59.339Z,8.52
2017-08-26T11:25:26.903Z,5.97
2017-08-26T11:27:54.421Z,6.47
2017-08-26T11:30:21.915Z,6.07
2017-08-26T11:32:49.426Z,7.15
2017-08-26T11:35:16.963Z,5.95
2017-08-26T11:37:44.466Z,5.90
2017-08-26T11:40:11.949Z,8.75
2017-08-26T11:42:39.679Z,6.40
2017-08-26T11:45:07.197Z,8.70
2017-08-26T11:47:34.690Z,9.23
2017-08-26T11:50:02.234Z,7.25
2017-08-26T11:52:29.752Z,6.75
2017-08-26T11:54:57.268Z,7.53
2017-08-26T11:57:24.806Z,6.22
2017-08-26T11:59:52.408Z,10.07
2017-08-26T12:02:20.047Z,7.25
2017-08-26T12:04:47.566Z,7.35
2017-08-26T12:07:15.088Z,8.05
2017-08-26T12:09:42.619Z,7.22
2017-08-26T12:12:10.144Z,7.47
2017-08-26T12:14:37.742Z,7.00
2017-08-26T12:17:05.259Z,6.57
2017-08-26T12:19:32.858Z,8.07
2017-08-26T12:22:00.373Z,8.47
2017-08-26T12:24:27.898Z,8.43
2017-08-26T12:26:55.410Z,9.30
2017-08-26T12:29:22.934Z,8.60
2017-08-26T12:31:50.579Z,10.05
2017-08-26T12:34:18.102Z,8.70
2017-08-26T12:36:45.605Z,9.52
2017-08-26T12:39:13.124Z,8.77
2017-08-26T12:41:40.628Z,8.32
2017-08-26T12:44:08.159Z,8.40
2017-08-26T12:46:35.785Z,9.15
2017-08-26T12:49:03.271Z,8.63
2017-08-26T12:51:30.787Z,9.00
2017-08-26T12:53:58.322Z,9.20
2017-08-26T12:56:25.846Z,9.07
2017-08-26T12:58:53.379Z,8.45
2017-08-26T13:01:20.916Z,8.93
2017-08-26T13:03:48.464Z,15.95
2017-08-26T13:06:15.951Z,8.18
2017-08-26T13:08:43.537Z,10.18
2017-08-26T13:11:11.042Z,9.52
2017-08-26T13:13:38.559Z,9.35
2017-08-26T13:16:06.105Z,9.18
2017-08-26T13:18:33.591Z,9.85
2017-08-26T13:21:01.154Z,10.75
2017-08-26T13:23:28.693Z,30.75
2017-08-26T13:25:56.216Z,10.27
2017-08-26T13:28:23.706Z,11.10
2017-08-26T13:30:51.202Z,11.02
2017-08-26T13:33:18.732Z,9.52
2017-08-26T13:35:46.242Z,10.00
2017-08-26T13:38:13.760Z,9.68
2017-08-26T13:40:41.267Z,12.07
2017-08-26T13:43:08.797Z,11.00
2017-08-26T13:45:36.348Z,10.95
2017-08-26T13:48:03.899Z,10.50
2017-08-26T13:50:31.652Z,10.63
2017-08-26T13:52:59.169Z,9.35
2017-08-26T13:55:26.778Z,13.98
2017-08-26T13:57:54.409Z,9.70
2017-08-26T14:00:22.100Z,9.95
2017-08-26T14:02:49.612Z,10.20
2017-08-26T14:05:17.211Z,9.75
2017-08-26T14:07:44.876Z,10.70
2017-08-26T14:10:12.434Z,10.60
2017-08-26T14:12:39.984Z,9.32
2017-08-26T14:15:07.492Z,9.68
2017-08-26T14:17:35.068Z,10.20
2017-08-26T14:20:02.653Z,10.98
2017-08-26T14:22:30.219Z,10.27
2017-08-26T14:24:57.740Z,10.45
2017-08-26T14:27:25.259Z,9.15
2017-08-26T14:29:52.764Z,9.35
2017-08-26T14:32:20.285Z,12.18
2017-08-26T14:34:47.812Z,12.35
2017-08-26T14:37:15.351Z,10.20
2017-08-26T14:39:42.865Z,10.15
2017-08-26T14:42:10.407Z,9.90
2017-08-26T14:44:37.893Z,10.23
2017-08-26T14:47:05.414Z,9.73
2017-08-26T14:49:32.940Z,9.80
2017-08-26T14:52:00.451Z,10.13
2017-08-26T14:54:27.975Z,12.00
2017-08-26T14:56:55.490Z,11.88
2017-08-26T14:59:23.037Z,12.00
2017-08-26T15:01:50.795Z,11.23
2017-08-26T15:04:18.478Z,11.63
2017-08-26T15:06:46.097Z,12.13
2017-08-26T15:09:13.753Z,12.32
2017-08-26T15:11:41.257Z,11.70
2017-08-26T15:14:08.913Z,13.70
2017-08-26T15:16:36.474Z,12.85
2017-08-26T15:19:04.028Z,13.55
2017-08-26T15:21:31.683Z,12.25
2017-08-26T15:23:59.337Z,13.18
2017-08-26T15:26:26.980Z,12.00
2017-08-26T15:28:54.501Z,13.73
2017-08-26T15:31:22.120Z,12.93
2017-08-26T15:33:49.638Z,14.63
2017-08-26T15:36:17.164Z,14.73
2017-08-26T15:38:44.703Z,15.02
2017-08-26T15:41:12.240Z,15.88
2017-08-26T15:43:39.843Z,15.68
2017-08-26T15:46:07.351Z,14.65
2017-08-26T15:48:34.885Z,14.50
2017-08-26T15:51:02.377Z,15.35
2017-08-26T15:53:29.897Z,14.55
2017-08-26T15:55:57.419Z,14.85
2017-08-26T15:58:25.005Z,17.60
2017-08-26T16:00:52.551Z,17.52
2017-08-26T16:03:20.068Z,17.90
2017-08-26T16:05:47.603Z,20.27
2017-08-26T16:08:15.119Z,20.42
2017-08-26T16:10:42.649Z,16.25
2017-08-26T16:13:10.158Z,17.27
2017-08-26T16:15:37.675Z,15.32
2017-08-26T16:18:05.159Z,16.60
2017-08-26T16:20:32.656Z,18.35
2017-08-26T16:23:00.178Z,18.67
2017-08-26T16:25:27.691Z,16.70
2017-08-26T16:27:55.228Z,16.62
2017-08-26T16:30:22.752Z,18.92
2017-08-26T16:32:50.256Z,33.80
2017-08-26T16:35:17.781Z,19.87
2017-08-26T16:37:45.295Z,18.58
2017-08-26T16:40:12.785Z,18.62
2017-08-26T16:42:40.671Z,19.02
2017-08-26T16:45:08.178Z,17.50
2017-08-26T16:47:35.767Z,16.75
2017-08-26T16:50:03.358Z,20.75
2017-08-26T16:52:30.867Z,19.17
2017-08-26T16:54:58.369Z,18.58
2017-08-26T16:57:25.893Z,23.60
2017-08-26T16:59:53.412Z,19.95
2017-08-26T17:02:20.959Z,20.00
2017-08-26T17:04:48.484Z,27.40
2017-08-26T17:07:15.988Z,21.73
2017-08-26T17:09:43.508Z,18.95
2017-08-26T17:12:11.172Z,19.60
2017-08-26T17:14:38.743Z,21.25
2017-08-26T17:17:06.296Z,19.85
2017-08-26T17:19:33.867Z,20.90
2017-08-26T17:22:01.397Z,22.02
2017-08-26T17:24:29.067Z,27.15
2017-08-26T17:26:56.624Z,25.00
2017-08-26T17:29:24.132Z,23.25
2017-08-26T17:31:51.670Z,24.85
2017-08-26T17:34:19.213Z,22.08
2017-08-26T17:36:46.992Z,20.83
2017-08-26T17:39:14.576Z,18.62
2017-08-26T17:41:42.338Z,18.70
2017-08-26T17:44:09.864Z,16.45
2017-08-26T17:46:37.355Z,15.38
2017-08-26T17:49:04.991Z,14.00
2017-08-26T17:51:32.640Z,19.65
2017-08-26T17:54:00.307Z,16.92
2017-08-26T17:56:27.873Z,16.80
2017-08-26T17:58:55.461Z,18.00
2017-08-26T18:01:23.083Z,13.68
2017-08-26T18:03:50.864Z,14.90
2017-08-26T18:06:18.406Z,13.18
2017-08-26T18:08:46.015Z,13.75
2017-08-26T18:11:13.534Z,16.12
2017-08-26T18:13:41.070Z,13.23
2017-08-26T18:16:08.599Z,12.75
2017-08-26T18:18:36.137Z,15.93
2017-08-26T18:21:03.660Z,17.75
2017-08-26T18:23:31.185Z,14.65
2017-08-26T18:25:59.710Z,14.00
2017-08-26T18:28:27.218Z,13.38
2017-08-26T18:30:54.775Z,12.70
2017-08-26T18:33:22.397Z,14.68
2017-08-26T18:35:49.955Z,14.43
2017-08-26T18:38:17.482Z,14.00
2017-08-26T18:40:44.996Z,15.50
2017-08-26T18:43:12.498Z,20.02
2017-08-26T18:45:40.032Z,15.63
2017-08-26T18:48:07.538Z,17.12
2017-08-26T18:50:35.030Z,14.57
2017-08-26T18:53:02.572Z,13.70
2017-08-26T18:55:30.135Z,13.57
2017-08-26T18:57:57.662Z,15.18
2017-08-26T19:00:25.165Z,14.32
2017-08-26T19:02:52.675Z,15.43
2017-08-26T19:05:20.190Z,15.05
2017-08-26T19:07:47.699Z,15.13
2017-08-26T19:10:15.222Z,14.13
2017-08-26T19:12:42.765Z,14.40
2017-08-26T19:15:10.276Z,14.80
2017-08-26T19:17:37.770Z,15.73
2017-08-26T19:20:05.315Z,17.10
2017-08-26T19:22:32.922Z,16.87
2017-08-26T19:25:00.434Z,15.75
2017-08-26T19:27:27.970Z,16.15
2017-08-26T19:29:55.764Z,13.85
2017-08-26T19:32:23.267Z,13.40
2017-08-26T19:34:50.804Z,15.02
2017-08-26T19:37:18.291Z,14.38
2017-08-26T19:39:45.851Z,16.87
2017-08-26T19:42:13.368Z,17.60
2017-08-26T19:44:40.900Z,22.77
2017-08-26T19:47:08.416Z,16.95
2017-08-26T19:49:35.934Z,17.20
2017-08-26T19:52:03.448Z,17.83
2017-08-26T19:54:30.950Z,23.90
2017-08-26T19:56:58.438Z,16.58
2017-08-26T19:59:25.982Z,22.73
2017-08-26T20:01:53.532Z,21.92
2017-08-26T20:04:21.200Z,19.48
2017-08-26T20:06:48.777Z,17.60
2017-08-26T20:09:16.307Z,18.67
2017-08-26T20:11:43.892Z,19.17
2017-08-26T20:14:12.212Z,18.73
2017-08-26T20:16:39.923Z,24.12
2017-08-26T20:19:07.611Z,21.70
2017-08-26T20:21:35.483Z,19.45
2017-08-26T20:24:02.981Z,18.90
2017-08-26T20:26:30.487Z,21.58
2017-08-26T20:28:57.998Z,20.50
2017-08-26T20:31:25.499Z,36.00
2017-08-26T20:33:52.992Z,17.10
2017-08-26T20:36:20.513Z,18.62
2017-08-26T20:38:48.885Z,21.17
2017-08-26T20:41:16.760Z,23.45
2017-08-26T20:43:44.287Z,20.35
2017-08-26T20:46:11.814Z,20.58
2017-08-26T20:48:39.357Z,20.45
2017-08-26T20:51:06.937Z,19.52
2017-08-26T20:53:34.461Z,20.33
2017-08-26T20:56:01.985Z,22.02
2017-08-26T20:58:29.583Z,21.25
2017-08-26T21:00:57.103Z,21.48
2017-08-26T21:03:24.621Z,20.75
2017-08-26T21:05:52.183Z,21.50
2017-08-26T21:08:19.705Z,25.05
2017-08-26T21:10:47.272Z,21.20
2017-08-26T21:13:14.795Z,21.48
2017-08-26T21:15:42.303Z,23.45
2017-08-26T21:18:09.826Z,20.70
2017-08-26T21:20:37.340Z,22.00
2017-08-26T21:23:04.864Z,20.50
2017-08-26T21:25:33.151Z,21.92
2017-08-26T21:28:02.354Z,24.60
2017-08-26T21:30:29.864Z,23.90
2017-08-26T21:32:57.363Z,23.27
2017-08-26T21:35:25.234Z,23.55
2017-08-26T21:37:52.876Z,21.70
2017-08-26T21:40:20.392Z,24.15
2017-08-26T21:42:47.947Z,20.62
2017-08-26T21:45:15.472Z,21.58
2017-08-26T21:47:42.970Z,25.58
2017-08-26T21:50:10.485Z,29.65
2017-08-26T21:52:38.019Z,20.83
2017-08-26T21:55:05.571Z,21.35
2017-08-26T21:57:33.121Z,21.67
2017-08-26T22:00:00.622Z,21.65
2017-08-26T22:02:28.150Z,24.42
2017-08-26T22:04:57.482Z,25.02
2017-08-26T22:07:25.011Z,24.92
2017-08-26T22:09:52.535Z,25.15
2017-08-26T22:12:20.041Z,28.83
2017-08-26T22:14:47.561Z,22.92
2017-08-26T22:17:15.070Z,23.85
2017-08-26T22:19:43.694Z,22.35
2017-08-26T22:22:11.227Z,23.15
2017-08-26T22:24:38.738Z,23.20
2017-08-26T22:27:06.334Z,23.35
2017-08-26T22:29:33.909Z,27.17
2017-08-26T22:32:01.562Z,22.85
2017-08-26T22:34:29.162Z,24.42
2017-08-26T22:36:56.732Z,25.35
2017-08-26T22:39:24.271Z,22.48
2017-08-26T22:41:51.771Z,23.17
2017-08-26T22:44:19.297Z,22.83
2017-08-26T22:46:46.842Z,22.15
2017-08-26T22:49:14.606Z,25.02
2017-08-26T22:51:42.251Z,22.42
2017-08-26T22:54:09.950Z,24.70
2017-08-26T22:56:37.466Z,27.23
2017-08-26T22:59:04.988Z,25.70
2017-08-26T23:01:32.500Z,25.50
2017-08-26T23:04:00.012Z,27.60
2017-08-26T23:06:27.515Z,24.00
2017-08-26T23:08:55.074Z,23.48
2017-08-26T23:11:22.582Z,23.02
2017-08-26T23:13:50.074Z,25.42
2017-08-26T23:16:17.586Z,24.27
2017-08-26T23:18:45.099Z,24.58
2017-08-26T23:21:12.624Z,23.75
2017-08-26T23:23:40.175Z,25.30
2017-08-26T23:26:07.719Z,24.23
2017-08-26T23:28:35.360Z,25.00
2017-08-26T23:31:03.009Z,23.58
2017-08-26T23:33:30.682Z,25.02
2017-08-26T23:35:58.333Z,26.00
2017-08-26T23:38:26.052Z,25.45
2017-08-26T23:40:53.566Z,28.15
2017-08-26T23:43:21.075Z,28.52
2017-08-26T23:45:48.575Z,27.42
2017-08-26T23:48:16.099Z,27.52
2017-08-26T23:50:43.599Z,29.87
2017-08-26T23:53:11.114Z,27.15
2017-08-26T23:55:38.615Z,29.30
2017-08-26T23:58:06.119Z,31.75
